Time;durP1;ratioP1;P1;durP2;ratioP2;P2;SDS_P1;SDS_P2;PMS_P1;PMS_P2;Temp;Humidity;BMP_temperature;BMP_pressure;BME280_temperature;BME280_humidity;BME280_pressure;Samples;Min_cycle;Max_cycle;Signal;HPM_P1;HPM_P2
2021/06/16 00:01:36;;;;;;;9.15;6.20;;;;;;;21.31;67.06;100113.13;1745701;80;21102;-72
2021/06/16 00:04:04;;;;;;;9.05;5.95;;;;;;;21.32;67.05;100115.31;1718644;81;21127;-71
2021/06/16 00:06:33;;;;;;;9.40;5.42;;;;;;;21.32;67.09;100127.36;1721041;81;21139;-69
2021/06/16 00:09:00;;;;;;;6.47;5.00;;;;;;;21.31;67.04;100123.84;1696559;82;21011;-69
2021/06/16 00:11:26;;;;;;;9.15;5.50;;;;;;;21.30;66.86;100124.87;1719739;81;21429;-69
2021/06/16 00:13:53;;;;;;;6.87;4.53;;;;;;;21.34;66.71;100137.34;1717049;83;21066;-70
2021/06/16 00:16:19;;;;;;;8.53;5.28;;;;;;;21.43;66.55;100146.84;1719706;81;21027;-69
2021/06/16 00:18:47;;;;;;;8.13;5.20;;;;;;;21.50;66.62;100151.76;1746916;80;21148;-70
2021/06/16 00:21:14;;;;;;;8.50;5.70;;;;;;;21.53;66.74;100153.20;1720911;81;21029;-70
2021/06/16 00:23:42;;;;;;;8.35;5.83;;;;;;;21.54;66.84;100157.53;1712419;81;21081;-69
2021/06/16 00:26:08;;;;;;;7.47;5.60;;;;;;;21.56;66.71;100166.19;1723195;82;21134;-69
2021/06/16 00:28:36;;;;;;;8.70;5.95;;;;;;;21.57;66.71;100153.61;1695396;82;21089;-71
2021/06/16 00:31:03;;;;;;;7.97;6.22;;;;;;;21.59;66.61;100156.41;1725766;81;21118;-70
2021/06/16 00:33:29;;;;;;;8.63;5.58;;;;;;;21.64;66.25;100152.63;1704297;81;21070;-72
2021/06/16 00:35:58;;;;;;;7.28;5.70;;;;;;;21.71;65.89;100155.33;1729786;81;21373;-70
2021/06/16 00:38:26;;;;;;;10.53;5.90;;;;;;;21.75;65.69;100157.08;1730680;81;21731;-71
2021/06/16 00:40:52;;;;;;;8.50;6.35;;;;;;;21.79;65.76;100155.66;1731573;81;21118;-69
2021/06/16 00:44:01;;;;;;;7.90;6.40;;;;;;;21.81;65.47;100158.44;1863597;76;22676;-68
2021/06/16 00:46:28;;;;;;;8.35;6.53;;;;;;;21.77;65.68;100163.05;1837541;75;21018;-69
2021/06/16 00:48:54;;;;;;;8.18;6.78;;;;;;;21.78;65.71;100176.77;1749435;78;21896;-69
2021/06/16 00:51:21;;;;;;;7.65;5.83;;;;;;;21.75;65.96;100183.33;1755541;78;21027;-69
2021/06/16 00:53:48;;;;;;;8.50;6.47;;;;;;;21.73;65.84;100180.04;1773655;78;21683;-71
2021/06/16 00:56:16;;;;;;;7.78;6.28;;;;;;;21.77;65.64;100186.66;1775511;78;21592;-69
2021/06/16 00:58:43;;;;;;;7.33;5.65;;;;;;;21.76;65.30;100196.23;1773868;78;21443;-71
2021/06/16 01:01:24;;;;;;;11.22;5.85;;;;;;;21.76;65.03;100205.61;1775141;79;21134;-69
2021/06/16 01:03:56;;;;;;;8.38;5.33;;;;;;;21.72;64.85;100205.19;1781105;78;21084;-68
2021/06/16 01:06:45;;;;;;;8.88;6.28;;;;;;;21.67;64.70;100204.93;1780126;78;22360;-70
2021/06/16 01:09:18;;;;;;;9.43;5.78;;;;;;;21.61;64.31;100205.23;1797149;77;21030;-71
2021/06/16 01:12:05;;;;;;;7.55;5.80;;;;;;;21.56;63.95;100199.64;1770629;78;21108;-69
2021/06/16 01:14:50;;;;;;;8.50;6.00;;;;;;;21.56;64.19;100194.81;1775159;79;21154;-69
2021/06/16 01:17:31;;;;;;;8.65;5.78;;;;;;;21.59;64.03;100191.74;1768893;78;21143;-71
2021/06/16 01:20:03;;;;;;;8.93;5.50;;;;;;;21.68;63.89;100184.65;1786145;78;21288;-69
2021/06/16 01:23:11;;;;;;;7.47;5.53;;;;;;;21.76;63.81;100180.98;1780952;78;21070;-70
2021/06/16 01:26:04;;;;;;;8.20;6.03;;;;;;;21.81;63.63;100186.55;1782281;77;21096;-69
2021/06/16 01:28:35;;;;;;;7.75;6.28;;;;;;;21.83;63.67;100186.36;1806330;77;21119;-70
2021/06/16 01:31:02;;;;;;;7.40;5.78;;;;;;;21.82;63.56;100188.71;1807944;77;21105;-70
2021/06/16 01:33:28;;;;;;;7.87;6.10;;;;;;;21.80;63.56;100196.13;1804666;77;21090;-69
2021/06/16 01:35:55;;;;;;;7.87;6.80;;;;;;;21.78;63.65;100201.68;1772545;78;21097;-69
2021/06/16 01:38:22;;;;;;;8.90;6.47;;;;;;;21.77;63.69;100200.05;1807007;78;21105;-70
2021/06/16 01:40:52;;;;;;;11.57;7.03;;;;;;;21.80;63.49;100193.45;1777831;77;22566;-69
2021/06/16 01:43:18;;;;;;;8.95;6.28;;;;;;;21.85;63.32;100192.33;1780913;78;21078;-69
2021/06/16 01:45:46;;;;;;;7.70;6.03;;;;;;;21.85;63.23;100187.79;1809729;77;21089;-68
2021/06/16 01:48:15;;;;;;;9.83;6.03;;;;;;;21.80;63.35;100181.40;1810414;77;21007;-71
2021/06/16 01:50:42;;;;;;;10.82;6.90;;;;;;;21.73;63.44;100176.55;1811352;77;21765;-70
2021/06/16 01:53:08;;;;;;;11.53;7.12;;;;;;;21.71;63.45;100180.23;1810877;78;21085;-69
2021/06/16 01:55:35;;;;;;;10.20;6.53;;;;;;;21.70;63.64;100189.31;1810582;77;21555;-71
2021/06/16 01:58:02;;;;;;;10.10;6.55;;;;;;;21.68;63.97;100187.84;1780322;78;22171;-71
2021/06/16 02:00:28;;;;;;;8.75;6.42;;;;;;;21.73;64.12;100185.92;1758349;78;21085;-71
2021/06/16 02:02:55;;;;;;;7.85;5.85;;;;;;;21.78;64.22;100180.78;1758416;80;21561;-71
2021/06/16 02:05:25;;;;;;;10.00;6.53;;;;;;;21.84;64.11;100171.95;1734001;79;21327;-70
2021/06/16 02:08:05;;;;;;;9.68;6.78;;;;;;;21.89;64.01;100162.80;1791309;78;21053;-68
2021/06/16 02:10:37;;;;;;;10.08;6.42;;;;;;;21.88;63.79;100169.17;1790237;78;21108;-71
2021/06/16 02:13:06;;;;;;;10.10;6.58;;;;;;;21.85;63.75;100172.24;1761340;78;21426;-69
2021/06/16 02:15:56;;;;;;;13.32;7.33;;;;;;;21.81;63.71;100176.37;1789592;78;21104;-68
2021/06/16 02:18:32;;;;;;;8.75;6.95;;;;;;;21.76;63.77;100183.66;1759296;78;21913;-70
2021/06/16 02:20:59;;;;;;;7.83;6.58;;;;;;;21.70;63.94;100183.95;1789470;78;21057;-68
2021/06/16 02:23:26;;;;;;;8.50;6.58;;;;;;;21.69;64.08;100184.98;1786031;78;21564;-69
2021/06/16 02:25:52;;;;;;;9.60;6.40;;;;;;;21.73;64.17;100192.09;1787246;78;22266;-70
2021/06/16 02:28:21;;;;;;;9.58;7.45;;;;;;;21.71;64.46;100192.29;1764450;78;21082;-70
2021/06/16 02:30:47;;;;;;;9.78;7.53;;;;;;;21.71;64.77;100197.64;1810587;77;21122;-69
2021/06/16 02:33:13;;;;;;;9.15;7.87;;;;;;;21.68;65.01;100196.70;1812787;77;21022;-69
2021/06/16 02:35:40;;;;;;;9.73;7.75;;;;;;;21.63;65.34;100190.30;1775656;78;21092;-70
2021/06/16 02:38:12;;;;;;;9.58;7.20;;;;;;;21.59;65.19;100195.76;1811904;77;21066;-72
2021/06/16 02:40:41;;;;;;;10.00;6.58;;;;;;;21.52;65.08;100198.41;1788406;78;21125;-70
2021/06/16 02:43:09;;;;;;;9.75;7.00;;;;;;;21.48;65.26;100194.46;1789874;78;21005;-72
2021/06/16 02:45:37;;;;;;;11.30;6.90;;;;;;;21.46;65.09;100197.83;1762039;79;21724;-70
2021/06/16 02:48:05;;;;;;;8.73;6.58;;;;;;;21.42;65.23;100204.61;1789222;78;21085;-71
2021/06/16 02:50:32;;;;;;;11.78;7.70;;;;;;;21.33;65.50;100198.08;1790445;78;21069;-73
2021/06/16 02:53:03;;;;;;;9.88;7.65;;;;;;;21.25;65.81;100198.23;1787787;79;21109;-70
2021/06/16 02:55:31;;;;;;;9.13;7.22;;;;;;;21.13;66.29;100197.12;1786407;78;21284;-72
2021/06/16 02:57:57;;;;;;;10.58;8.18;;;;;;;21.06;66.72;100201.09;1787759;78;21520;-71
2021/06/16 03:00:23;;;;;;;9.15;7.47;;;;;;;21.04;66.82;100203.66;1786908;78;21093;-72
2021/06/16 03:02:50;;;;;;;9.65;7.45;;;;;;;21.00;66.69;100209.07;1753755;79;21552;-71
2021/06/16 03:05:25;;;;;;;10.78;8.38;;;;;;;20.93;66.63;100209.02;1762427;79;21077;-70
2021/06/16 03:07:53;;;;;;;9.45;7.33;;;;;;;20.87;66.75;100207.97;1762829;78;21774;-71
2021/06/16 03:10:20;;;;;;;10.48;8.00;;;;;;;20.86;66.84;100208.97;1787614;78;21046;-71
2021/06/16 03:12:49;;;;;;;10.32;8.13;;;;;;;20.86;66.98;100212.98;1788242;78;21093;-70
2021/06/16 03:15:17;;;;;;;10.08;7.92;;;;;;;20.91;66.60;100205.23;1786996;78;21698;-70
2021/06/16 03:17:46;;;;;;;10.50;7.45;;;;;;;20.91;66.57;100204.39;1758447;78;21993;-70
2021/06/16 03:20:15;;;;;;;10.13;7.75;;;;;;;20.86;66.93;100210.31;1758441;78;21281;-68
2021/06/16 03:22:41;;;;;;;8.93;7.65;;;;;;;20.83;67.19;100212.55;1814940;78;21077;-70
2021/06/16 03:25:09;;;;;;;10.38;6.97;;;;;;;20.86;67.24;100215.66;1785938;78;21080;-69
2021/06/16 03:27:36;;;;;;;10.45;6.87;;;;;;;20.95;67.20;100222.53;1784243;78;21930;-70
2021/06/16 03:30:04;;;;;;;9.78;8.03;;;;;;;21.01;67.07;100224.11;1809781;77;21324;-71
2021/06/16 03:32:30;;;;;;;8.98;7.17;;;;;;;21.08;66.97;100224.48;1784639;77;21078;-69
2021/06/16 03:34:56;;;;;;;9.80;7.50;;;;;;;21.11;66.90;100228.08;1698667;80;21643;-69
2021/06/16 03:37:23;;;;;;;10.88;8.08;;;;;;;21.15;66.90;100227.20;1809151;78;21120;-69
2021/06/16 03:39:51;;;;;;;10.28;7.22;;;;;;;21.18;67.05;100234.00;1733599;78;21054;-69
2021/06/16 03:42:21;;;;;;;8.73;7.45;;;;;;;21.24;66.93;100236.71;1814271;77;20911;-71
2021/06/16 03:44:48;;;;;;;10.40;7.67;;;;;;;21.36;66.43;100238.84;1805679;77;21356;-69
2021/06/16 03:47:16;;;;;;;8.68;7.47;;;;;;;21.44;66.12;100240.84;1804255;77;21054;-70
2021/06/16 03:49:43;;;;;;;12.43;8.55;;;;;;;21.49;65.40;100245.13;1774297;78;20871;-69
2021/06/16 03:52:10;;;;;;;10.45;7.85;;;;;;;21.52;65.07;100242.05;1749019;78;21383;-70
2021/06/16 03:54:36;;;;;;;10.08;8.58;;;;;;;21.51;64.66;100244.93;1804348;77;21455;-71
2021/06/16 03:57:04;;;;;;;9.40;7.97;;;;;;;21.46;64.50;100243.33;1806260;77;21427;-70
2021/06/16 03:59:30;;;;;;;12.20;7.70;;;;;;;21.46;64.10;100250.02;1807893;78;21272;-72
2021/06/16 04:01:56;;;;;;;9.63;8.28;;;;;;;21.48;64.14;100246.66;1760343;78;21000;-72
2021/06/16 04:04:23;;;;;;;11.97;8.33;;;;;;;21.51;64.26;100246.27;1791463;78;21466;-71
2021/06/16 04:06:49;;;;;;;10.28;7.95;;;;;;;21.51;64.44;100247.08;1774933;78;20916;-69
2021/06/16 04:09:16;;;;;;;13.70;9.05;;;;;;;21.51;64.30;100247.61;1785361;78;21123;-71
2021/06/16 04:11:43;;;;;;;10.85;8.93;;;;;;;21.49;64.51;100244.31;1780593;78;21090;-72
2021/06/16 04:14:09;;;;;;;10.50;7.50;;;;;;;21.51;64.38;100240.91;1781318;78;21082;-71
2021/06/16 04:16:36;;;;;;;10.80;7.22;;;;;;;21.53;64.26;100246.89;1771748;78;21584;-70
2021/06/16 04:19:04;;;;;;;12.33;9.03;;;;;;;21.61;64.13;100250.74;1740807;78;21356;-71
2021/06/16 04:21:31;;;;;;;11.28;8.40;;;;;;;21.64;63.72;100247.67;1719633;78;21114;-69
2021/06/16 04:23:57;;;;;;;10.78;7.80;;;;;;;21.63;63.73;100251.36;1804322;77;21335;-68
2021/06/16 04:26:25;;;;;;;8.83;7.87;;;;;;;21.59;63.65;100254.66;1803919;78;21042;-70
2021/06/16 04:28:52;;;;;;;12.85;9.38;;;;;;;21.54;63.64;100250.41;1807372;78;20983;-70
2021/06/16 04:31:18;;;;;;;10.00;8.78;;;;;;;21.47;63.74;100257.89;1779187;78;21362;-67
2021/06/16 04:33:45;;;;;;;9.45;7.80;;;;;;;21.41;63.73;100260.49;1803434;77;22594;-67
2021/06/16 04:36:11;;;;;;;12.43;8.43;;;;;;;21.39;63.88;100255.85;1800411;77;21031;-71
2021/06/16 04:38:38;;;;;;;10.60;8.10;;;;;;;21.41;63.69;100254.62;1780675;78;22094;-68
2021/06/16 04:41:04;;;;;;;10.58;8.03;;;;;;;21.41;63.88;100264.50;1773926;78;20911;-69
2021/06/16 04:43:31;;;;;;;13.30;9.18;;;;;;;21.31;64.28;100260.31;1809150;77;21534;-71
2021/06/16 04:45:57;;;;;;;11.97;10.38;;;;;;;21.22;64.50;100262.03;1777074;78;21143;-71
2021/06/16 04:48:24;;;;;;;13.78;10.58;;;;;;;21.13;64.73;100263.52;1806037;77;20981;-70
2021/06/16 04:50:50;;;;;;;20.15;13.25;;;;;;;21.12;64.60;100262.37;1811897;77;20954;-69
2021/06/16 04:53:16;;;;;;;12.10;9.25;;;;;;;21.18;64.40;100260.75;1784757;78;22235;-70
2021/06/16 04:55:43;;;;;;;11.35;7.75;;;;;;;21.19;64.46;100263.75;1810866;77;20965;-70
2021/06/16 04:58:10;;;;;;;10.85;7.58;;;;;;;21.17;64.41;100266.63;1783112;78;22412;-69
2021/06/16 05:00:36;;;;;;;12.43;8.68;;;;;;;21.15;64.14;100264.14;1777454;79;21110;-71
2021/06/16 05:03:03;;;;;;;10.60;7.72;;;;;;;21.13;63.94;100268.86;1781495;80;21093;-70
2021/06/16 05:05:29;;;;;;;9.55;7.67;;;;;;;21.09;64.05;100263.57;1790465;78;22317;-70
2021/06/16 05:07:55;;;;;;;10.53;8.23;;;;;;;21.13;64.00;100266.68;1787162;78;21042;-68
2021/06/16 05:10:22;;;;;;;12.63;10.45;;;;;;;21.22;63.86;100266.86;1811571;77;21097;-72
2021/06/16 05:12:49;;;;;;;9.88;7.55;;;;;;;21.28;63.25;100272.78;1785450;78;21622;-70
2021/06/16 05:15:16;;;;;;;12.30;9.18;;;;;;;21.26;63.32;100278.00;1771419;77;21042;-70
2021/06/16 05:17:43;;;;;;;16.90;13.95;;;;;;;21.24;63.34;100270.68;1776221;78;21126;-68
2021/06/16 05:20:12;;;;;;;19.32;10.43;;;;;;;21.20;63.08;100268.91;1807687;77;21309;-72
2021/06/16 05:22:40;;;;;;;14.98;11.00;;;;;;;21.18;63.26;100279.48;1779036;78;21165;-71
2021/06/16 05:25:09;;;;;;;13.98;11.45;;;;;;;21.21;63.22;100283.92;1785521;78;21553;-68
2021/06/16 05:27:36;;;;;;;16.40;11.70;;;;;;;21.29;63.15;100286.45;1787345;78;20990;-69
2021/06/16 05:30:07;;;;;;;10.50;8.28;;;;;;;21.37;63.20;100287.31;1787800;78;20994;-69
2021/06/16 05:32:34;;;;;;;11.35;8.90;;;;;;;21.41;63.15;100290.75;1814241;77;21003;-69
2021/06/16 05:35:01;;;;;;;11.05;9.33;;;;;;;21.42;63.12;100284.39;1757629;79;22239;-70
2021/06/16 05:37:27;;;;;;;14.07;10.20;;;;;;;21.42;63.24;100291.60;1780747;78;20990;-69
2021/06/16 05:39:53;;;;;;;14.25;10.98;;;;;;;21.44;63.17;100290.88;1811787;77;21089;-71
2021/06/16 05:42:20;;;;;;;12.28;8.68;;;;;;;21.48;62.93;100289.48;1779064;78;21101;-71
2021/06/16 05:44:46;;;;;;;11.18;8.33;;;;;;;21.52;62.95;100290.24;1787518;78;20907;-69
2021/06/16 05:47:12;;;;;;;10.20;8.68;;;;;;;21.54;62.62;100291.39;1810044;77;21099;-72
2021/06/16 05:49:39;;;;;;;11.03;8.95;;;;;;;21.54;62.82;100299.94;1810287;77;21096;-72
2021/06/16 05:52:07;;;;;;;9.25;8.03;;;;;;;21.55;62.58;100303.73;1808144;77;21029;-69
2021/06/16 05:54:42;;;;;;;9.53;8.05;;;;;;;21.57;62.35;100304.87;1751960;80;22113;-71
2021/06/16 05:57:07;;;;;;;12.73;8.75;;;;;;;21.58;62.56;100308.70;1783725;78;21457;-69
2021/06/16 05:59:33;;;;;;;19.70;14.78;;;;;;;21.59;62.45;100309.55;1807785;77;22724;-70
2021/06/16 06:02:01;;;;;;;13.85;10.90;;;;;;;21.65;62.44;100305.56;1794816;78;21125;-69
2021/06/16 06:04:27;;;;;;;10.03;7.83;;;;;;;21.80;62.01;100306.75;1778265;79;21038;-70
2021/06/16 06:06:54;;;;;;;11.38;7.92;;;;;;;21.88;61.81;100309.27;1754704;78;21105;-70
2021/06/16 06:09:21;;;;;;;11.33;8.58;;;;;;;21.94;61.89;100305.47;1809105;77;21089;-71
2021/06/16 06:11:47;;;;;;;14.98;11.28;;;;;;;22.00;61.80;100308.70;1781097;78;22551;-69
2021/06/16 06:14:14;;;;;;;14.60;9.75;;;;;;;22.06;61.75;100313.27;1812489;77;21054;-69
2021/06/16 06:16:40;;;;;;;12.23;8.28;;;;;;;22.10;61.55;100308.34;1758898;78;20987;-69
2021/06/16 06:19:07;;;;;;;9.48;7.80;;;;;;;22.11;61.49;100306.80;1811948;77;21038;-70
2021/06/16 06:21:33;;;;;;;12.82;8.65;;;;;;;22.14;61.77;100309.09;1811862;78;21116;-70
2021/06/16 06:24:01;;;;;;;12.28;8.48;;;;;;;22.24;61.75;100309.53;1795406;78;21735;-70
2021/06/16 06:26:27;;;;;;;9.30;6.62;;;;;;;22.42;61.36;100311.65;1784252;78;21077;-69
2021/06/16 06:28:54;;;;;;;11.60;6.97;;;;;;;22.55;61.13;100311.39;1781832;78;21142;-70
2021/06/16 06:31:21;;;;;;;8.78;7.08;;;;;;;22.67;61.06;100307.59;1770084;80;21038;-69
2021/06/16 06:33:48;;;;;;;9.95;7.25;;;;;;;22.77;60.71;100308.02;1785060;78;21139;-70
2021/06/16 06:36:17;;;;;;;10.80;7.42;;;;;;;22.88;60.45;100311.93;1809069;77;21172;-69
2021/06/16 06:38:43;;;;;;;11.55;8.23;;;;;;;22.99;60.01;100314.82;1779016;78;21702;-70
2021/06/16 06:41:12;;;;;;;11.55;9.13;;;;;;;23.04;59.56;100312.05;1807975;77;22421;-70
2021/06/16 06:43:39;;;;;;;10.18;8.80;;;;;;;23.07;59.41;100314.36;1810724;78;21026;-71
2021/06/16 06:46:06;;;;;;;12.47;8.45;;;;;;;23.08;59.54;100312.81;1812892;77;21117;-70
2021/06/16 06:48:32;;;;;;;9.93;7.40;;;;;;;23.14;59.56;100315.17;1786800;78;21132;-68
2021/06/16 06:50:59;;;;;;;12.47;7.37;;;;;;;23.23;59.30;100310.41;1811726;78;21059;-69
2021/06/16 06:53:27;;;;;;;12.00;8.80;;;;;;;23.31;59.35;100307.52;1812635;78;21066;-70
2021/06/16 06:55:53;;;;;;;16.15;9.18;;;;;;;23.36;59.13;100314.42;1811433;78;21100;-71
2021/06/16 06:58:20;;;;;;;11.20;8.20;;;;;;;23.42;58.84;100306.89;1814259;77;21033;-70
2021/06/16 07:00:46;;;;;;;10.00;8.00;;;;;;;23.42;58.79;100305.55;1812219;78;21685;-69
2021/06/16 07:03:12;;;;;;;13.50;9.08;;;;;;;23.40;58.83;100303.56;1812835;77;21033;-69
2021/06/16 07:05:40;;;;;;;8.65;6.87;;;;;;;23.38;58.39;100309.67;1811719;77;21061;-71
2021/06/16 07:08:07;;;;;;;8.10;5.95;;;;;;;23.37;58.49;100312.06;1813541;77;21077;-72
2021/06/16 07:10:33;;;;;;;7.67;5.15;;;;;;;23.37;58.31;100314.75;1788679;78;21006;-71
2021/06/16 07:13:02;;;;;;;8.65;6.37;;;;;;;23.39;58.34;100308.64;1787726;78;21158;-69
2021/06/16 07:15:31;;;;;;;8.30;5.55;;;;;;;23.42;58.13;100311.41;1789740;78;21055;-72
2021/06/16 07:17:58;;;;;;;9.78;5.78;;;;;;;23.44;58.11;100314.21;1787456;78;21089;-70
2021/06/16 07:20:24;;;;;;;9.83;5.30;;;;;;;23.46;57.71;100315.34;1787843;78;21030;-70
2021/06/16 07:22:50;;;;;;;8.80;5.33;;;;;;;23.39;61.58;100323.41;1759458;78;21088;-70
2021/06/16 07:25:19;;;;;;;9.85;5.70;;;;;;;23.18;60.54;100324.45;1791860;78;21144;-69
2021/06/16 07:27:45;;;;;;;8.90;5.65;;;;;;;23.12;60.36;100323.95;1789375;78;21065;-70
2021/06/16 07:30:14;;;;;;;7.28;5.62;;;;;;;23.12;59.57;100327.45;1788090;78;21105;-68
2021/06/16 07:32:40;;;;;;;6.83;5.12;;;;;;;23.15;59.15;100327.05;1786260;78;21054;-70
2021/06/16 07:35:08;;;;;;;10.43;5.60;;;;;;;23.19;58.61;100329.61;1760269;79;21116;-70
2021/06/16 07:37:35;;;;;;;7.28;5.12;;;;;;;23.22;59.17;100332.91;1759805;79;22387;-69
2021/06/16 07:40:05;;;;;;;7.83;5.25;;;;;;;23.24;58.84;100330.86;1760586;79;21767;-70
2021/06/16 07:42:33;;;;;;;7.22;4.95;;;;;;;23.25;57.77;100332.50;1785676;78;21038;-69
2021/06/16 07:44:59;;;;;;;8.28;5.50;;;;;;;23.22;57.51;100332.41;1773043;78;21916;-72
2021/06/16 07:47:26;;;;;;;6.42;4.75;;;;;;;23.23;57.78;100338.59;1730767;79;21135;-71
2021/06/16 07:49:52;;;;;;;7.55;5.67;;;;;;;23.25;57.85;100337.38;1762951;79;22380;-71
2021/06/16 07:52:19;;;;;;;6.50;5.30;;;;;;;23.27;58.08;100328.59;1733543;79;21033;-73
2021/06/16 07:54:48;;;;;;;6.37;4.62;;;;;;;23.36;57.79;100334.56;1760846;79;21061;-73
2021/06/16 07:57:15;;;;;;;7.60;4.78;;;;;;;23.48;57.57;100334.23;1737198;79;21048;-70
2021/06/16 07:59:41;;;;;;;7.22;5.30;;;;;;;23.58;57.36;100328.43;1734314;79;22022;-69
2021/06/16 08:02:08;;;;;;;7.50;5.50;;;;;;;23.66;57.36;100331.42;1762459;79;21106;-71
2021/06/16 08:04:38;;;;;;;6.72;4.75;;;;;;;23.76;57.77;100327.78;1763896;79;21578;-70
2021/06/16 08:07:03;;;;;;;7.25;5.15;;;;;;;23.87;57.35;100323.62;1733068;79;22393;-68
2021/06/16 08:09:33;;;;;;;6.67;5.05;;;;;;;24.00;56.86;100323.58;1732242;79;21032;-70
2021/06/16 08:12:03;;;;;;;6.70;5.05;;;;;;;24.12;56.90;100321.05;1764998;79;21059;-70
2021/06/16 08:14:30;;;;;;;7.55;5.42;;;;;;;24.26;56.94;100319.95;1733643;79;21075;-70
2021/06/16 08:16:58;;;;;;;7.12;5.40;;;;;;;24.37;56.20;100323.01;1778935;78;21129;-69
2021/06/16 08:19:24;;;;;;;7.28;5.55;;;;;;;24.45;55.94;100328.14;1781078;78;21032;-69
2021/06/16 08:21:51;;;;;;;6.17;5.10;;;;;;;24.53;55.73;100324.34;1718955;80;21116;-67
2021/06/16 08:24:19;;;;;;;6.70;4.90;;;;;;;24.59;55.62;100324.87;1773599;79;21062;-72
2021/06/16 08:26:46;;;;;;;6.95;5.40;;;;;;;24.68;55.49;100323.58;1755534;79;21161;-69
2021/06/16 08:29:12;;;;;;;7.50;5.37;;;;;;;24.78;55.69;100329.30;1755938;79;21029;-69
2021/06/16 08:31:39;;;;;;;8.83;5.65;;;;;;;24.84;55.70;100326.25;1759501;79;21011;-68
2021/06/16 08:34:05;;;;;;;13.40;6.50;;;;;;;24.92;56.00;100333.24;1758989;79;21049;-70
2021/06/16 08:36:31;;;;;;;9.10;5.62;;;;;;;25.01;56.15;100334.61;1756428;79;21045;-69
2021/06/16 08:38:58;;;;;;;6.95;5.17;;;;;;;25.10;55.32;100332.45;1726475;79;21254;-72
2021/06/16 08:41:26;;;;;;;9.15;5.70;;;;;;;25.20;54.76;100332.78;1754262;79;21107;-72
2021/06/16 08:43:52;;;;;;;7.67;5.58;;;;;;;25.30;54.94;100327.78;1755063;79;21049;-70
2021/06/16 08:46:19;;;;;;;6.65;4.95;;;;;;;25.42;55.60;100323.83;1747289;78;21580;-70
2021/06/16 08:48:46;;;;;;;6.08;4.37;;;;;;;25.53;54.70;100327.11;1779011;78;21718;-69
2021/06/16 08:51:14;;;;;;;6.30;4.72;;;;;;;25.63;54.45;100324.44;1779747;78;21856;-72
2021/06/16 08:53:42;;;;;;;7.50;5.05;;;;;;;25.72;53.86;100330.66;1772867;79;21058;-69
2021/06/16 08:56:09;;;;;;;8.45;5.12;;;;;;;25.85;53.88;100329.67;1771553;78;21089;-68
2021/06/16 08:58:37;;;;;;;7.17;4.97;;;;;;;25.97;53.78;100329.77;1750807;80;21155;-71
2021/06/16 09:01:05;;;;;;;6.72;4.87;;;;;;;26.07;53.52;100338.14;1807795;77;21054;-68
2021/06/16 09:03:33;;;;;;;7.10;5.33;;;;;;;26.12;53.05;100336.94;1773448;78;21142;-70
2021/06/16 09:06:15;;;;;;;8.68;5.65;;;;;;;26.17;52.77;100344.36;1775251;77;21109;-70
2021/06/16 09:09:04;;;;;;;6.05;4.55;;;;;;;26.19;52.41;100342.25;1809294;78;22275;-70
2021/06/16 09:11:46;;;;;;;7.72;4.90;;;;;;;26.23;52.76;100346.16;1736964;78;21018;-70
2021/06/16 09:14:26;;;;;;;7.70;5.35;;;;;;;26.29;52.46;100348.45;1777817;78;22333;-69
2021/06/16 09:16:53;;;;;;;7.62;5.22;;;;;;;26.36;52.53;100345.16;1749882;78;22294;-69
2021/06/16 09:19:25;;;;;;;6.20;3.83;;;;;;;26.40;51.93;100347.69;1805492;77;21047;-69
2021/06/16 09:21:59;;;;;;;5.47;3.27;;;;;;;26.39;49.63;100348.73;1800351;77;21062;-69
2021/06/16 09:24:47;;;;;;;5.85;3.52;;;;;;;26.32;47.19;100338.03;1770184;78;21050;-70
2021/06/16 09:27:39;;;;;;;5.53;3.62;;;;;;;26.21;45.48;100333.43;1780407;78;21434;-69
2021/06/16 09:30:23;;;;;;;5.65;3.33;;;;;;;26.13;45.20;100328.34;1789259;78;22852;-70
2021/06/16 09:32:53;;;;;;;6.40;3.27;;;;;;;26.16;45.38;100331.09;1797919;77;21035;-72
2021/06/16 09:35:27;;;;;;;6.90;3.65;;;;;;;26.17;44.98;100321.97;1802144;77;21130;-71
2021/06/16 09:37:54;;;;;;;4.53;2.10;;;;;;;26.21;44.56;100324.49;1747366;78;21053;-71
2021/06/16 09:40:28;;;;;;;4.60;2.02;;;;;;;26.30;41.54;100329.88;1777901;78;21309;-74
2021/06/16 09:43:03;;;;;;;5.55;2.17;;;;;;;26.35;41.51;100325.97;1806225;77;21103;-68
2021/06/16 09:45:30;;;;;;;5.03;1.95;;;;;;;26.44;41.85;100323.23;1806115;77;21004;-72
2021/06/16 09:47:56;;;;;;;4.15;2.27;;;;;;;26.54;41.58;100326.73;1776072;78;21049;-73
2021/06/16 09:50:26;;;;;;;4.28;2.12;;;;;;;26.64;40.56;100326.22;1773778;78;21019;-72
2021/06/16 09:52:53;;;;;;;4.50;2.30;;;;;;;26.73;40.57;100322.14;1740411;78;21042;-71
2021/06/16 09:55:28;;;;;;;5.60;2.60;;;;;;;26.81;39.95;100319.09;1778260;78;21211;-70
2021/06/16 09:58:10;;;;;;;4.75;2.42;;;;;;;26.88;38.94;100318.98;1806827;77;21121;-70
2021/06/16 10:00:49;;;;;;;5.65;2.70;;;;;;;26.95;39.56;100323.77;1805217;77;21105;-71
2021/06/16 10:03:21;;;;;;;7.75;3.15;;;;;;;27.02;40.62;100319.61;1806177;77;21070;-72
2021/06/16 10:06:11;;;;;;;8.23;3.00;;;;;;;27.04;42.34;100320.19;1784395;78;21019;-69
2021/06/16 10:08:43;;;;;;;5.45;3.72;;;;;;;27.01;42.05;100317.95;1783214;78;22519;-69
2021/06/16 10:11:19;;;;;;;6.47;4.10;;;;;;;26.93;41.96;100312.35;1775337;78;21070;-70
2021/06/16 10:13:47;;;;;;;5.10;3.30;;;;;;;26.90;41.92;100307.45;1748918;78;21042;-70
2021/06/16 10:16:14;;;;;;;8.55;4.17;;;;;;;26.90;43.28;100315.55;1779212;78;22461;-71
2021/06/16 10:18:47;;;;;;;6.50;2.85;;;;;;;26.90;43.06;100310.65;1779425;78;21066;-70
2021/06/16 10:21:16;;;;;;;5.22;2.87;;;;;;;26.90;40.48;100302.55;1777682;78;21608;-71
2021/06/16 10:23:44;;;;;;;7.40;4.72;;;;;;;26.87;39.19;100306.02;1806844;77;20975;-71
2021/06/16 10:26:14;;;;;;;7.03;4.35;;;;;;;26.85;38.26;100303.27;1807252;77;21042;-72
2021/06/16 10:28:47;;;;;;;4.00;1.92;;;;;;;26.86;38.19;100299.50;1805943;77;21172;-70
2021/06/16 10:31:14;;;;;;;4.60;2.55;;;;;;;26.84;38.07;100302.43;1808424;78;20966;-69
2021/06/16 10:33:41;;;;;;;5.90;3.08;;;;;;;26.87;38.21;100298.45;1806653;77;21222;-69
2021/06/16 10:36:21;;;;;;;5.45;3.08;;;;;;;26.92;37.44;100299.12;1805181;78;21031;-70
2021/06/16 10:39:01;;;;;;;5.47;2.60;;;;;;;26.97;36.08;100304.09;1774505;79;21536;-71
2021/06/16 10:41:54;;;;;;;5.42;2.35;;;;;;;27.01;36.53;100295.00;1758842;78;21059;-70
2021/06/16 10:44:24;;;;;;;8.73;3.12;;;;;;;27.09;37.46;100299.24;1775034;78;21547;-71
2021/06/16 10:47:07;;;;;;;5.15;3.02;;;;;;;27.21;37.55;100300.05;1785221;78;21137;-72
2021/06/16 10:49:47;;;;;;;6.65;2.75;;;;;;;27.36;38.22;100307.72;1785231;78;21049;-69
2021/06/16 10:52:15;;;;;;;5.00;2.92;;;;;;;27.46;38.90;100293.63;1786991;78;21559;-70
2021/06/16 10:55:02;;;;;;;4.72;2.17;;;;;;;27.50;38.57;100299.64;1785834;78;21473;-70
2021/06/16 10:57:29;;;;;;;6.58;3.80;;;;;;;27.50;38.28;100294.78;1787089;78;21037;-70
2021/06/16 11:00:09;;;;;;;6.08;2.98;;;;;;;27.55;38.12;100291.64;1762522;78;22376;-72
2021/06/16 11:02:44;;;;;;;7.35;3.70;;;;;;;27.59;38.67;100298.77;1775292;78;21096;-71
2021/06/16 11:05:22;;;;;;;6.45;3.25;;;;;;;27.58;38.34;100292.52;1786386;78;21065;-71
2021/06/16 11:07:50;;;;;;;5.12;2.42;;;;;;;27.53;39.71;100299.71;1786151;78;21037;-71
2021/06/16 11:10:17;;;;;;;5.75;2.75;;;;;;;27.48;39.51;100295.02;1785397;78;21136;-70
2021/06/16 11:12:45;;;;;;;6.53;3.58;;;;;;;27.44;39.06;100291.16;1800019;77;21796;-71
2021/06/16 11:15:26;;;;;;;5.05;3.10;;;;;;;27.39;38.37;100285.64;1764970;79;21113;-72
2021/06/16 11:17:53;;;;;;;8.63;2.65;;;;;;;27.30;38.34;100285.16;1771150;79;21042;-70
2021/06/16 11:20:25;;;;;;;5.53;2.50;;;;;;;27.19;38.85;100294.08;1757753;78;21053;-70
2021/06/16 11:22:59;;;;;;;7.17;3.50;;;;;;;27.17;39.12;100293.50;1782649;78;21257;-69
2021/06/16 11:25:34;;;;;;;5.40;2.52;;;;;;;27.18;39.73;100289.18;1786516;78;21082;-71
2021/06/16 11:28:20;;;;;;;7.05;2.90;;;;;;;27.24;39.56;100292.84;1787219;78;21050;-70
2021/06/16 11:31:01;;;;;;;4.42;2.27;;;;;;;27.27;39.25;100292.88;1784412;78;21078;-70
2021/06/16 11:33:36;;;;;;;4.30;2.17;;;;;;;27.32;38.42;100284.92;1786353;78;21674;-72